Time;durP1;ratioP1;P1;durP2;ratioP2;P2;SDS_P1;SDS_P2;PMS_P1;PMS_P2;Temp;Humidity;BMP_temperature;BMP_pressure;BME280_temperature;BME280_humidity;BME280_pressure;Samples;Min_cycle;Max_cycle;Signal;HPM_P1;HPM_P2
2021/03/27 00:02:01;;;;;;;0.00;0.00;;;8.80;63.80;;;;;;4992887;28;20035;-79
2021/03/27 00:04:46;;;;;;;0.98;0.30;;;8.80;63.80;;;;;;4993139;28;20038;-80
2021/03/27 00:07:34;;;;;;;0.40;0.00;;;8.80;63.90;;;;;;4993326;28;20037;-82
2021/03/27 00:10:24;;;;;;;1.50;0.20;;;8.70;63.80;;;;;;4991192;28;20487;-80
2021/03/27 00:13:08;;;;;;;0.00;0.00;;;8.70;63.80;;;;;;4991101;28;20022;-80
2021/03/27 00:15:36;;;;;;;0.00;0.00;;;8.70;63.80;;;;;;4991948;28;20034;-80
2021/03/27 00:18:13;;;;;;;0.57;0.32;;;8.70;63.80;;;;;;4994324;28;20026;-79
2021/03/27 00:21:00;;;;;;;0.00;0.00;;;8.60;63.70;;;;;;4993133;28;20498;-79
2021/03/27 00:23:34;;;;;;;0.17;0.00;;;8.60;63.70;;;;;;4973853;28;20383;-79
2021/03/27 00:26:06;;;;;;;0.70;0.38;;;8.60;63.70;;;;;;4982967;28;20030;-80
2021/03/27 00:28:36;;;;;;;0.10;0.00;;;8.60;63.80;;;;;;4994315;28;20376;-80
2021/03/27 00:31:13;;;;;;;0.70;0.20;;;8.50;63.80;;;;;;4992637;28;20503;-79
2021/03/27 00:33:48;;;;;;;0.13;0.10;;;8.50;63.80;;;;;;4992704;28;20023;-79
2021/03/27 00:36:18;;;;;;;9.95;0.10;;;8.50;63.80;;;;;;4978391;28;20394;-80
2021/03/27 00:38:47;;;;;;;0.47;0.20;;;8.50;63.80;;;;;;4992957;28;20019;-80
2021/03/27 00:41:18;;;;;;;0.00;0.00;;;8.50;63.80;;;;;;4976940;28;20038;-80
2021/03/27 00:43:47;;;;;;;0.35;0.00;;;8.40;63.80;;;;;;4992798;28;20029;-80
2021/03/27 00:46:14;;;;;;;0.10;0.00;;;8.50;63.80;;;;;;4992291;28;20494;-81
2021/03/27 00:48:46;;;;;;;0.10;0.00;;;8.40;63.80;;;;;;4975606;28;20037;-79
2021/03/27 00:51:18;;;;;;;0.00;0.00;;;8.40;63.70;;;;;;4992518;28;20495;-80
2021/03/27 00:54:13;;;;;;;0.00;0.00;;;8.40;63.80;;;;;;4992622;28;20471;-79
2021/03/27 00:56:57;;;;;;;0.35;0.22;;;8.40;63.80;;;;;;4978860;28;20038;-80
2021/03/27 00:59:23;;;;;;;0.00;0.00;;;8.40;63.80;;;;;;4992838;28;20027;-79
2021/03/27 01:01:51;;;;;;;0.00;0.00;;;8.40;63.80;;;;;;4993039;28;20034;-79
2021/03/27 01:04:17;;;;;;;3.63;0.05;;;8.40;63.80;;;;;;4960605;28;20038;-79
2021/03/27 01:07:06;;;;;;;0.10;0.00;;;8.40;63.80;;;;;;4975670;28;20034;-80
2021/03/27 01:09:44;;;;;;;0.00;0.00;;;8.40;63.80;;;;;;4990109;28;20035;-79
2021/03/27 01:12:29;;;;;;;0.00;0.00;;;8.30;63.70;;;;;;4992563;28;20046;-79
2021/03/27 01:14:59;;;;;;;0.15;0.15;;;8.30;64.60;;;;;;4992506;28;20379;-79
2021/03/27 01:17:28;;;;;;;0.03;0.00;;;8.30;63.80;;;;;;4991793;28;20395;-79
2021/03/27 01:19:56;;;;;;;0.00;0.00;;;8.30;63.80;;;;;;4992321;28;20023;-80
2021/03/27 01:22:22;;;;;;;0.88;0.00;;;8.30;63.80;;;;;;4992457;28;20021;-80
2021/03/27 01:24:48;;;;;;;0.13;0.00;;;8.30;63.80;;;;;;4991516;28;20033;-79
2021/03/27 01:27:34;;;;;;;0.08;0.00;;;8.30;63.90;;;;;;4993875;28;20498;-79
2021/03/27 01:30:09;;;;;;;0.10;0.00;;;8.30;63.90;;;;;;4992399;28;20045;-79
2021/03/27 01:32:49;;;;;;;0.03;0.03;;;8.30;63.90;;;;;;4991216;28;20053;-80
2021/03/27 01:35:42;;;;;;;0.00;0.00;;;8.20;63.80;;;;;;4992334;28;20030;-79
2021/03/27 01:38:24;;;;;;;0.00;0.00;;;8.20;63.90;;;;;;4974290;28;20038;-79
2021/03/27 01:41:18;;;;;;;2.20;0.30;;;8.20;64.00;;;;;;4992280;28;20380;-79
2021/03/27 01:44:02;;;;;;;0.15;0.15;;;8.20;64.00;;;;;;4981226;28;20027;-79
2021/03/27 01:46:31;;;;;;;0.68;0.28;;;8.20;64.00;;;;;;4975839;28;20050;-79
2021/03/27 01:49:46;;;;;;;0.17;0.03;;;8.10;64.00;;;;;;4992746;28;20034;-79
2021/03/27 01:52:34;;;;;;;0.00;0.00;;;8.10;64.10;;;;;;4988870;28;20384;-80
2021/03/27 01:55:07;;;;;;;0.25;0.20;;;8.00;64.10;;;;;;4990045;28;20022;-79
2021/03/27 01:57:48;;;;;;;1.40;0.17;;;8.00;64.10;;;;;;4989857;28;20387;-79
2021/03/27 02:00:34;;;;;;;0.08;0.00;;;8.00;64.10;;;;;;4992510;28;20384;-80
2021/03/27 02:03:18;;;;;;;0.38;0.08;;;8.00;64.20;;;;;;4992189;28;20026;-79
2021/03/27 02:06:13;;;;;;;6.82;0.38;;;8.00;64.20;;;;;;4993229;28;20057;-79
2021/03/27 02:08:57;;;;;;;0.00;0.00;;;8.00;64.20;;;;;;4993643;28;20026;-79
2021/03/27 02:11:31;;;;;;;0.22;0.10;;;8.00;64.30;;;;;;4995460;28;20046;-79
2021/03/27 02:14:20;;;;;;;0.00;0.00;;;7.90;64.20;;;;;;4995378;28;20030;-79
2021/03/27 02:17:12;;;;;;;0.93;0.30;;;7.90;64.30;;;;;;4995026;28;20487;-80
2021/03/27 02:19:57;;;;;;;0.00;0.00;;;7.90;64.40;;;;;;4980949;28;20055;-79
2021/03/27 02:22:26;;;;;;;0.38;0.10;;;7.80;64.30;;;;;;4980673;28;20391;-80
2021/03/27 02:25:24;;;;;;;1.45;0.10;;;7.80;64.40;;;;;;4994519;28;20479;-80
2021/03/27 02:27:57;;;;;;;0.00;0.00;;;7.80;64.40;;;;;;5006968;28;20041;-79
2021/03/27 02:30:37;;;;;;;0.00;0.00;;;7.80;64.40;;;;;;4995010;28;20498;-79
2021/03/27 02:33:25;;;;;;;0.98;0.30;;;7.80;64.50;;;;;;4975827;28;20524;-79
2021/03/27 02:36:12;;;;;;;4.57;0.75;;;7.80;64.50;;;;;;4993329;28;20026;-79
2021/03/27 02:39:07;;;;;;;0.10;0.10;;;7.80;64.50;;;;;;4994955;28;20031;-82
2021/03/27 02:41:59;;;;;;;0.85;0.38;;;7.70;64.50;;;;;;4975519;28;20045;-79
2021/03/27 02:44:35;;;;;;;0.28;0.00;;;7.70;64.50;;;;;;4972727;28;20487;-79
2021/03/27 02:47:07;;;;;;;0.00;0.00;;;7.70;64.60;;;;;;4994322;28;20037;-80
2021/03/27 02:49:45;;;;;;;0.00;0.00;;;7.70;64.60;;;;;;4996098;28;20038;-79
2021/03/27 02:52:36;;;;;;;0.10;0.10;;;7.70;64.70;;;;;;4994647;28;20069;-79
2021/03/27 02:55:09;;;;;;;0.00;0.00;;;7.70;64.70;;;;;;4992883;28;20023;-79
2021/03/27 02:57:47;;;;;;;0.30;0.10;;;7.70;64.70;;;;;;4977964;28;20479;-79
2021/03/27 03:00:23;;;;;;;0.17;0.10;;;7.60;64.70;;;;;;4994245;28;20466;-80
2021/03/27 03:03:26;;;;;;;0.05;0.00;;;7.60;64.70;;;;;;4982444;28;20419;-80
2021/03/27 03:06:26;;;;;;;5.18;0.17;;;7.70;64.80;;;;;;4952629;28;20035;-78
2021/03/27 03:09:04;;;;;;;3.78;0.63;;;7.60;64.70;;;;;;4958204;28;20042;-79
2021/03/27 03:11:46;;;;;;;0.00;0.00;;;7.60;64.70;;;;;;4924842;28;20043;-81
2021/03/27 03:14:24;;;;;;;0.00;0.00;;;7.70;64.90;;;;;;4956712;28;20035;-79
2021/03/27 03:17:01;;;;;;;0.40;0.10;;;7.60;64.80;;;;;;4954595;28;20034;-80
2021/03/27 03:19:50;;;;;;;1.02;0.30;;;7.60;64.90;;;;;;4954363;28;20078;-81
2021/03/27 03:22:33;;;;;;;0.90;0.20;;;7.60;64.90;;;;;;4939870;28;20038;-80
2021/03/27 03:25:01;;;;;;;0.00;0.00;;;7.60;65.00;;;;;;4954406;28;20046;-80
2021/03/27 03:27:41;;;;;;;0.65;0.28;;;7.60;65.00;;;;;;4966396;28;20042;-79
2021/03/27 03:30:23;;;;;;;0.13;0.10;;;7.50;65.00;;;;;;4957683;28;20043;-80
2021/03/27 03:33:34;;;;;;;0.30;0.10;;;7.50;65.10;;;;;;4958229;28;20030;-81
2021/03/27 03:36:52;;;;;;;0.00;0.00;;;7.50;65.20;;;;;;4898040;29;20533;-80
2021/03/27 03:39:28;;;;;;;0.40;0.17;;;7.50;65.20;;;;;;4864089;29;20120;-79
2021/03/27 03:42:02;;;;;;;0.00;0.00;;;7.50;65.10;;;;;;4874600;29;20391;-79
2021/03/27 03:44:52;;;;;;;0.00;0.00;;;7.50;65.20;;;;;;4891971;29;20516;-79
2021/03/27 03:47:47;;;;;;;0.00;0.00;;;7.40;65.20;;;;;;4895342;29;20646;-79
2021/03/27 03:50:25;;;;;;;0.43;0.00;;;7.40;65.20;;;;;;4896658;29;20047;-79
2021/03/27 03:53:09;;;;;;;0.00;0.00;;;7.40;65.20;;;;;;4896687;29;20104;-81
2021/03/27 03:56:02;;;;;;;0.00;0.00;;;7.40;65.30;;;;;;4879117;29;20143;-80
2021/03/27 03:58:53;;;;;;;0.00;0.00;;;7.40;65.30;;;;;;4867998;29;20033;-79
2021/03/27 04:01:28;;;;;;;0.00;0.00;;;7.40;65.30;;;;;;4880595;29;20056;-79
2021/03/27 04:03:58;;;;;;;0.00;0.00;;;7.40;65.30;;;;;;4895827;29;20036;-80
2021/03/27 04:06:29;;;;;;;0.00;0.00;;;7.40;65.30;;;;;;4896143;29;20143;-79
2021/03/27 04:09:11;;;;;;;0.00;0.00;;;7.40;65.40;;;;;;4893452;29;20044;-79
2021/03/27 04:11:39;;;;;;;0.20;0.20;;;7.40;65.50;;;;;;4891687;29;20453;-79
2021/03/27 04:14:13;;;;;;;0.50;0.15;;;7.40;65.50;;;;;;4918463;29;20051;-79
2021/03/27 04:16:41;;;;;;;0.00;0.00;;;7.40;65.50;;;;;;4911112;29;20088;-80
2021/03/27 04:19:17;;;;;;;0.50;0.10;;;7.30;65.50;;;;;;4918476;29;20055;-79
2021/03/27 04:22:21;;;;;;;1.33;0.68;;;7.30;65.50;;;;;;4868079;29;20043;-79
2021/03/27 04:25:20;;;;;;;3.75;0.28;;;7.30;65.50;;;;;;4910956;29;20044;-79
2021/03/27 04:28:11;;;;;;;0.63;0.25;;;7.30;65.50;;;;;;4921569;28;20049;-80
2021/03/27 04:31:03;;;;;;;0.10;0.00;;;7.30;65.60;;;;;;4990746;28;20038;-79
2021/03/27 04:33:47;;;;;;;0.00;0.00;;;7.30;65.60;;;;;;4974888;28;20408;-79
2021/03/27 04:36:36;;;;;;;0.00;0.00;;;7.30;65.60;;;;;;4994334;28;20039;-79
2021/03/27 04:39:10;;;;;;;0.00;0.00;;;7.20;65.60;;;;;;4992662;28;20484;-79
2021/03/27 04:41:42;;;;;;;3.95;0.03;;;7.20;65.70;;;;;;4992749;28;20037;-80
2021/03/27 04:44:33;;;;;;;0.05;0.00;;;7.20;65.70;;;;;;4993752;28;20050;-79
2021/03/27 04:47:21;;;;;;;0.00;0.00;;;7.20;65.70;;;;;;4976251;28;20046;-79
2021/03/27 04:49:55;;;;;;;0.77;0.03;;;7.20;65.80;;;;;;4992545;28;20038;-80
2021/03/27 04:52:56;;;;;;;2.28;0.43;;;7.20;65.80;;;;;;4961975;28;20042;-81
2021/03/27 04:55:50;;;;;;;0.00;0.00;;;7.20;65.90;;;;;;4961462;28;20046;-79
2021/03/27 04:58:28;;;;;;;0.00;0.00;;;7.20;65.80;;;;;;4961293;28;20530;-79
2021/03/27 05:01:32;;;;;;;0.00;0.00;;;7.20;65.90;;;;;;4988903;28;20026;-80
2021/03/27 05:04:08;;;;;;;0.00;0.00;;;7.20;66.00;;;;;;4991112;28;20026;-79
2021/03/27 05:06:39;;;;;;;8.32;0.40;;;7.20;65.90;;;;;;5006823;28;20411;-80
2021/03/27 05:09:15;;;;;;;;;;;7.10;65.90;;;;;;4976899;28;20037;-79
2021/03/27 05:11:56;;;;;;;0.20;0.00;;;7.10;66.00;;;;;;4993579;28;19925;-79
2021/03/27 05:14:41;;;;;;;;;;;7.10;65.90;;;;;;4992985;28;20018;-80
2021/03/27 05:17:09;;;;;;;1.45;0.30;;;7.10;65.90;;;;;;4993301;28;19914;-79
2021/03/27 05:19:38;;;;;;;0.00;0.00;;;7.10;65.80;;;;;;4975502;28;20443;-79
2021/03/27 05:22:55;;;;;;;1.60;0.20;;;7.00;65.80;;;;;;4992476;28;20502;-80
2021/03/27 05:25:29;;;;;;;0.82;0.05;;;7.00;66.00;;;;;;4972031;28;20041;-81
2021/03/27 05:28:16;;;;;;;0.00;0.00;;;7.00;66.00;;;;;;4953051;28;20202;-80
2021/03/27 05:30:54;;;;;;;0.10;0.00;;;7.00;66.00;;;;;;4955309;28;20374;-79
2021/03/27 05:33:32;;;;;;;0.65;0.35;;;7.00;66.10;;;;;;4957005;28;20043;-80
2021/03/27 05:36:23;;;;;;;0.00;0.00;;;7.00;66.10;;;;;;4971956;28;20039;-80
2021/03/27 05:39:14;;;;;;;0.00;0.00;;;7.00;66.20;;;;;;4948834;28;20039;-79
2021/03/27 05:42:08;;;;;;;1.35;0.10;;;7.00;66.20;;;;;;4954800;28;20037;-79
2021/03/27 05:45:18;;;;;;;1.67;0.13;;;7.00;66.10;;;;;;4974500;28;20055;-79
2021/03/27 05:48:06;;;;;;;0.00;0.00;;;7.00;66.20;;;;;;4916976;29;20552;-79
2021/03/27 05:50:44;;;;;;;1.90;0.10;;;7.00;66.10;;;;;;4914240;29;20066;-80
2021/03/27 05:53:28;;;;;;;1.00;0.25;;;7.00;66.10;;;;;;4902006;29;20067;-79
2021/03/27 05:56:03;;;;;;;0.47;0.00;;;7.00;66.20;;;;;;4933299;29;20040;-79
2021/03/27 05:58:47;;;;;;;3.85;0.35;;;7.00;66.20;;;;;;4917901;29;20567;-79
2021/03/27 06:01:13;;;;;;;0.00;0.00;;;7.00;66.30;;;;;;4920238;28;20032;-80
2021/03/27 06:03:56;;;;;;;0.00;0.00;;;7.00;66.20;;;;;;4935970;29;20044;-79
2021/03/27 06:06:32;;;;;;;0.00;0.00;;;7.00;66.30;;;;;;4952952;28;20040;-79
2021/03/27 06:09:13;;;;;;;0.20;0.00;;;7.00;67.00;;;;;;4951894;28;20035;-79
2021/03/27 06:11:56;;;;;;;1.35;0.17;;;7.00;66.30;;;;;;4936428;29;20463;-79
2021/03/27 06:14:53;;;;;;;0.17;0.00;;;7.00;66.30;;;;;;4936618;29;20547;-80
2021/03/27 06:17:19;;;;;;;0.00;0.00;;;7.00;66.30;;;;;;4935926;28;20039;-80
2021/03/27 06:20:30;;;;;;;0.00;0.00;;;7.00;66.20;;;;;;4936345;29;20043;-81
2021/03/27 06:23:40;;;;;;;2.58;0.38;;;7.00;66.20;;;;;;4912855;29;20028;-79
2021/03/27 06:26:37;;;;;;;0.35;0.32;;;7.10;66.20;;;;;;4995009;28;20428;-79
2021/03/27 06:29:41;;;;;;;0.45;0.25;;;7.10;66.10;;;;;;4996373;28;20034;-79
2021/03/27 06:32:28;;;;;;;0.15;0.00;;;7.10;66.10;;;;;;4995945;28;20047;-79
2021/03/27 06:35:07;;;;;;;0.08;0.08;;;7.20;66.80;;;;;;4996247;28;20029;-79
2021/03/27 06:37:36;;;;;;;0.10;0.00;;;7.20;66.00;;;;;;4980220;28;20392;-79
2021/03/27 06:40:25;;;;;;;10.32;0.57;;;7.40;65.90;;;;;;4996100;28;20038;-79
2021/03/27 06:43:28;;;;;;;0.10;0.00;;;7.60;65.50;;;;;;4979127;28;20041;-81
2021/03/27 06:46:07;;;;;;;1.00;0.00;;;7.90;65.10;;;;;;4991837;28;20380;-80
2021/03/27 06:48:59;;;;;;;0.00;0.00;;;8.20;64.50;;;;;;4992480;28;20042;-79
2021/03/27 06:52:02;;;;;;;0.00;0.00;;;8.50;64.00;;;;;;4996250;28;20042;-79
2021/03/27 06:54:31;;;;;;;1.35;0.20;;;8.70;63.60;;;;;;4992665;28;20035;-80
2021/03/27 06:57:01;;;;;;;0.00;0.00;;;9.00;63.10;;;;;;4995644;28;20023;-79
2021/03/27 07:00:05;;;;;;;0.63;0.03;;;9.10;62.90;;;;;;4995766;28;20538;-79
2021/03/27 07:02:52;;;;;;;2.88;0.45;;;9.40;62.90;;;;;;4994973;28;20429;-79
2021/03/27 07:05:37;;;;;;;0.08;0.00;;;9.60;62.50;;;;;;4995371;28;20022;-80
2021/03/27 07:08:07;;;;;;;0.00;0.00;;;9.80;62.20;;;;;;4995562;28;20018;-80
2021/03/27 07:10:42;;;;;;;0.55;0.20;;;10.00;62.00;;;;;;4994487;28;20053;-81
2021/03/27 07:13:29;;;;;;;0.00;0.00;;;10.20;61.80;;;;;;4994457;28;20053;-80
2021/03/27 07:16:16;;;;;;;5.45;0.20;;;10.40;61.60;;;;;;4991338;28;20030;-81
2021/03/27 07:19:08;;;;;;;0.10;0.00;;;10.50;61.50;;;;;;4993193;28;20102;-80
2021/03/27 07:22:00;;;;;;;0.00;0.00;;;10.70;61.40;;;;;;4992194;28;20037;-80
2021/03/27 07:24:30;;;;;;;0.00;0.00;;;10.80;61.10;;;;;;4995478;28;20030;-80
2021/03/27 07:27:25;;;;;;;0.20;0.10;;;11.00;61.00;;;;;;4994097;28;20019;-82
2021/03/27 07:30:14;;;;;;;0.10;0.00;;;11.10;60.90;;;;;;4994143;28;20379;-80
2021/03/27 07:33:20;;;;;;;0.00;0.00;;;11.30;60.80;;;;;;4992945;28;20034;-80
2021/03/27 07:35:52;;;;;;;1.08;0.10;;;11.50;60.70;;;;;;4933394;29;20488;-81
2021/03/27 07:38:56;;;;;;;0.00;0.00;;;11.50;60.60;;;;;;4951487;29;20047;-80
2021/03/27 07:41:48;;;;;;;0.00;0.00;;;11.60;60.50;;;;;;4933403;29;20051;-81
2021/03/27 07:44:25;;;;;;;2.55;0.05;;;11.80;60.50;;;;;;4918347;29;20043;-81
2021/03/27 07:47:09;;;;;;;0.68;0.00;;;11.90;60.20;;;;;;4917963;29;20042;-82
2021/03/27 07:50:05;;;;;;;3.85;0.10;;;12.10;60.10;;;;;;4933320;29;20036;-80
2021/03/27 07:52:59;;;;;;;0.28;0.20;;;12.20;60.00;;;;;;4933374;29;20051;-82
2021/03/27 07:55:49;;;;;;;0.32;0.32;;;12.30;60.00;;;;;;4917855;29;20035;-80
2021/03/27 07:58:24;;;;;;;9.82;0.10;;;12.40;59.90;;;;;;4916757;29;20498;-81
2021/03/27 08:00:55;;;;;;;0.35;0.17;;;12.60;59.90;;;;;;4933118;29;20031;-81
2021/03/27 08:03:40;;;;;;;4.90;0.35;;;12.70;59.80;;;;;;4916696;29;20396;-81
2021/03/27 08:06:33;;;;;;;1.10;0.47;;;12.80;59.70;;;;;;4916289;29;20420;-81
2021/03/27 08:09:18;;;;;;;13.70;0.40;;;12.90;59.60;;;;;;4863320;29;20192;-83
2021/03/27 08:12:11;;;;;;;3.45;0.25;;;13.00;59.50;;;;;;4861547;29;20156;-80
2021/03/27 08:15:02;;;;;;;0.10;0.03;;;13.20;59.40;;;;;;4929853;29;20039;-80
2021/03/27 08:18:08;;;;;;;0.30;0.17;;;13.50;59.20;;;;;;4934811;28;20040;-80
2021/03/27 08:20:44;;;;;;;4.30;0.30;;;13.60;59.00;;;;;;4883080;29;20051;-80
2021/03/27 08:23:30;;;;;;;0.17;0.00;;;13.80;58.80;;;;;;4894004;29;20149;-81
2021/03/27 08:26:23;;;;;;;0.00;0.00;;;13.90;58.70;;;;;;4876218;29;20499;-80
2021/03/27 08:29:28;;;;;;;1.45;0.10;;;14.10;58.60;;;;;;4876408;29;20037;-80
2021/03/27 08:32:09;;;;;;;0.22;0.10;;;14.20;58.60;;;;;;4865093;29;20045;-80
2021/03/27 08:35:03;;;;;;;1.10;0.28;;;14.30;58.50;;;;;;4876286;29;20033;-81
2021/03/27 08:37:51;;;;;;;2.28;0.35;;;14.50;58.40;;;;;;4891389;29;20124;-80
2021/03/27 08:40:17;;;;;;;0.20;0.05;;;14.60;58.20;;;;;;4861387;29;20538;-81
2021/03/27 08:42:48;;;;;;;17.73;0.25;;;14.90;58.00;;;;;;4876711;29;20041;-81
2021/03/27 08:45:42;;;;;;;2.05;0.52;;;15.00;57.80;;;;;;4882894;29;20040;-81
2021/03/27 08:48:32;;;;;;;0.52;0.20;;;15.20;57.70;;;;;;4897574;29;20525;-81
2021/03/27 08:51:18;;;;;;;1.00;0.35;;;15.20;57.70;;;;;;4897565;29;20028;-81
2021/03/27 08:53:59;;;;;;;1.90;0.22;;;15.30;57.70;;;;;;4913104;29;20161;-81
2021/03/27 08:57:01;;;;;;;4.15;0.17;;;15.40;57.60;;;;;;4913385;29;20044;-81
2021/03/27 08:59:42;;;;;;;4.13;0.00;;;15.50;57.50;;;;;;4912290;29;20020;-81
2021/03/27 09:02:45;;;;;;;3.50;0.20;;;15.60;57.30;;;;;;4915745;28;20418;-84
2021/03/27 09:05:33;;;;;;;5.18;0.35;;;15.80;57.20;;;;;;4985419;28;20038;-82
2021/03/27 09:08:11;;;;;;;0.90;0.05;;;15.90;57.00;;;;;;4976469;28;20049;-81
2021/03/27 09:10:41;;;;;;;0.10;0.00;;;16.10;57.00;;;;;;4993925;28;20033;-81
2021/03/27 09:13:31;;;;;;;1.07;0.10;;;16.30;56.80;;;;;;4992548;28;20409;-81
2021/03/27 09:16:29;;;;;;;0.20;0.13;;;16.40;56.50;;;;;;4989925;28;20488;-81
2021/03/27 09:19:19;;;;;;;0.00;0.00;;;16.60;56.30;;;;;;4952648;28;20131;-81
2021/03/27 09:22:04;;;;;;;1.02;0.10;;;16.80;56.20;;;;;;4952025;29;20039;-82
2021/03/27 09:24:34;;;;;;;0.20;0.00;;;16.90;56.00;;;;;;4971120;28;20035;-81
2021/03/27 09:27:17;;;;;;;2.20;0.37;;;17.00;56.00;;;;;;4930652;29;20050;-82
2021/03/27 09:29:43;;;;;;;3.25;0.10;;;17.10;56.00;;;;;;4939488;29;20050;-82
2021/03/27 09:32:24;;;;;;;0.20;0.10;;;17.20;55.90;;;;;;4955918;28;20047;-81
2021/03/27 09:35:11;;;;;;;1.25;0.25;;;17.20;55.80;;;;;;4940365;29;20039;-81
2021/03/27 09:37:40;;;;;;;0.38;0.10;;;17.30;55.80;;;;;;4959691;28;20023;-81
2021/03/27 09:40:56;;;;;;;0.88;0.10;;;17.20;55.80;;;;;;4939593;28;20047;-82
2021/03/27 09:43:59;;;;;;;0.82;0.08;;;17.30;55.70;;;;;;4921252;28;20599;-81
2021/03/27 09:46:27;;;;;;;0.00;0.00;;;17.40;55.60;;;;;;4941575;28;20039;-81
2021/03/27 09:49:12;;;;;;;0.00;0.00;;;17.40;55.50;;;;;;4938509;28;20032;-82
2021/03/27 09:52:01;;;;;;;4.85;0.38;;;17.10;55.50;;;;;;4938752;28;20038;-81
2021/03/27 09:54:48;;;;;;;0.20;0.00;;;16.80;55.90;;;;;;4916862;29;20044;-81
2021/03/27 09:57:24;;;;;;;1.27;0.10;;;16.60;56.20;;;;;;4938857;29;20042;-80
2021/03/27 10:00:11;;;;;;;0.10;0.00;;;16.50;56.20;;;;;;4919633;29;20039;-80
2021/03/27 10:02:58;;;;;;;0.98;0.10;;;16.50;56.10;;;;;;4952691;28;20492;-81
2021/03/27 10:05:48;;;;;;;5.07;0.17;;;16.60;56.10;;;;;;4935642;29;20032;-81
2021/03/27 10:08:24;;;;;;;0.00;0.00;;;16.70;55.90;;;;;;4953169;29;20197;-81
2021/03/27 10:11:05;;;;;;;0.98;0.35;;;16.70;55.70;;;;;;4937210;29;20504;-81
2021/03/27 10:13:40;;;;;;;0.32;0.10;;;16.70;55.60;;;;;;4923548;29;20044;-81
2021/03/27 10:16:10;;;;;;;0.20;0.10;;;16.80;55.60;;;;;;4952834;28;20031;-81
2021/03/27 10:19:02;;;;;;;4.75;1.20;;;16.90;55.30;;;;;;4939022;29;20432;-81
2021/03/27 10:21:42;;;;;;;3.80;0.20;;;17.20;55.00;;;;;;4923442;29;20604;-81
2021/03/27 10:24:11;;;;;;;0.00;0.00;;;17.40;54.60;;;;;;4927277;28;20046;-81
2021/03/27 10:27:01;;;;;;;0.22;0.00;;;17.50;54.50;;;;;;4937019;29;20046;-81
2021/03/27 10:29:38;;;;;;;1.00;0.10;;;17.60;54.30;;;;;;4917226;29;20051;-81
2021/03/27 10:32:31;;;;;;;3.65;0.20;;;17.60;54.20;;;;;;4960205;28;20046;-81
2021/03/27 10:35:17;;;;;;;7.15;0.10;;;17.50;54.30;;;;;;4973274;28;20042;-81
2021/03/27 10:37:46;;;;;;;0.63;0.20;;;17.40;54.30;;;;;;4941380;28;20039;-81
2021/03/27 10:40:33;;;;;;;1.95;0.20;;;17.40;54.20;;;;;;4956910;28;20066;-82
2021/03/27 10:43:08;;;;;;;0.45;0.03;;;17.40;54.30;;;;;;4970775;28;20035;-81
2021/03/27 10:45:45;;;;;;;0.40;0.00;;;17.40;54.30;;;;;;4971312;28;20451;-81
2021/03/27 10:48:13;;;;;;;2.72;0.10;;;17.40;54.20;;;;;;4957028;28;20073;-81
2021/03/27 10:51:02;;;;;;;0.10;0.00;;;17.30;54.10;;;;;;4956953;28;20038;-81
2021/03/27 10:53:43;;;;;;;2.53;0.13;;;17.30;54.10;;;;;;4941150;28;20046;-81
2021/03/27 10:56:36;;;;;;;0.45;0.10;;;17.40;54.00;;;;;;4972942;28;20062;-82
2021/03/27 10:59:17;;;;;;;0.63;0.08;;;17.70;53.60;;;;;;4958839;28;20030;-82
2021/03/27 11:01:48;;;;;;;0.00;0.00;;;17.90;53.30;;;;;;4972510;28;20407;-81
2021/03/27 11:04:45;;;;;;;6.22;0.17;;;18.10;53.00;;;;;;4957052;28;20035;-81
2021/03/27 11:07:38;;;;;;;2.67;0.15;;;18.10;52.90;;;;;;4989612;28;20046;-81
2021/03/27 11:10:27;;;;;;;0.00;0.00;;;17.90;53.00;;;;;;4994047;28;20045;-81
2021/03/27 11:13:11;;;;;;;10.05;0.25;;;17.70;53.30;;;;;;4990124;28;20042;-82
2021/03/27 11:15:58;;;;;;;0.10;0.00;;;17.60;53.50;;;;;;5008345;28;20399;-81
2021/03/27 11:18:58;;;;;;;0.03;0.00;;;17.50;53.40;;;;;;4995135;28;20034;-81
2021/03/27 11:21:27;;;;;;;0.00;0.00;;;17.30;53.50;;;;;;5027763;28;20042;-81
2021/03/27 11:24:18;;;;;;;0.30;0.00;;;17.20;53.50;;;;;;4994115;28;20077;-81
2021/03/27 11:26:55;;;;;;;5.65;0.28;;;17.20;53.70;;;;;;4994929;28;20026;-81
2021/03/27 11:29:38;;;;;;;0.00;0.00;;;17.20;53.50;;;;;;4993988;28;20380;-81
2021/03/27 11:32:07;;;;;;;0.30;0.10;;;17.30;53.20;;;;;;4977739;28;20058;-81
2021/03/27 11:34:54;;;;;;;0.38;0.13;;;17.40;53.00;;;;;;4995215;28;20019;-82
2021/03/27 11:37:43;;;;;;;0.10;0.00;;;17.40;52.90;;;;;;4960261;28;20054;-81
2021/03/27 11:41:03;;;;;;;0.55;0.10;;;17.40;52.90;;;;;;4993686;28;20030;-81
2021/03/27 11:43:43;;;;;;;0.00;0.00;;;17.30;53.00;;;;;;4958326;28;20039;-81
2021/03/27 11:46:28;;;;;;;0.10;0.10;;;17.20;53.00;;;;;;4955498;28;20122;-81
2021/03/27 11:49:01;;;;;;;2.38;0.13;;;17.20;53.10;;;;;;4953378;28;20052;-82
2021/03/27 11:51:50;;;;;;;0.00;0.00;;;17.10;53.10;;;;;;4957834;28;20491;-81
2021/03/27 11:54:40;;;;;;;0.80;0.28;;;17.20;53.00;;;;;;4959139;28;20063;-81
2021/03/27 11:57:09;;;;;;;0.40;0.10;;;17.20;52.90;;;;;;4968687;28;20377;-81
2021/03/27 12:02:47;;;;;;;6.03;0.52;;;17.20;52.80;;;;;;4967930;28;20134;-83
2021/03/27 12:05:37;;;;;;;3.30;0.20;;;17.20;52.90;;;;;;4968684;28;20038;-81
2021/03/27 12:08:14;;;;;;;1.38;0.20;;;17.20;52.80;;;;;;4942424;28;20042;-81
2021/03/27 12:10:52;;;;;;;1.55;0.20;;;17.20;52.80;;;;;;4956040;28;20487;-81
2021/03/27 12:13:30;;;;;;;0.15;0.08;;;17.20;52.70;;;;;;4941577;28;20050;-81
2021/03/27 12:16:35;;;;;;;0.00;0.00;;;17.30;52.60;;;;;;4971543;28;20516;-81
2021/03/27 12:19:20;;;;;;;1.48;0.55;;;17.40;52.40;;;;;;4987236;28;20034;-81
2021/03/27 12:22:01;;;;;;;0.98;0.20;;;17.50;52.30;;;;;;4993622;28;20035;-82
2021/03/27 12:24:30;;;;;;;4.10;0.35;;;17.60;52.60;;;;;;4976062;28;20030;-81
2021/03/27 12:27:17;;;;;;;9.00;0.70;;;17.70;51.80;;;;;;4994261;28;20030;-81
2021/03/27 12:29:48;;;;;;;0.05;0.00;;;17.70;51.80;;;;;;4993081;28;20034;-82
2021/03/27 12:32:36;;;;;;;0.00;0.00;;;17.70;51.90;;;;;;4992661;28;20041;-80
2021/03/27 12:35:21;;;;;;;0.00;0.00;;;17.70;51.90;;;;;;4993015;28;20034;-81
2021/03/27 12:37:50;;;;;;;0.00;0.00;;;17.70;51.80;;;;;;4993772;28;20042;-82
2021/03/27 12:40:35;;;;;;;1.08;0.20;;;17.70;51.70;;;;;;4994130;28;20037;-82
2021/03/27 12:43:08;;;;;;;0.45;0.10;;;17.80;51.70;;;;;;4990545;28;20391;-82
2021/03/27 12:45:37;;;;;;;0.63;0.25;;;17.90;51.70;;;;;;4989874;28;20049;-81
2021/03/27 12:48:20;;;;;;;0.00;0.00;;;17.90;51.50;;;;;;4992585;28;20014;-81
2021/03/27 12:51:10;;;;;;;1.35;0.35;;;17.90;51.50;;;;;;4992718;28;20030;-81
2021/03/27 12:53:39;;;;;;;0.03;0.00;;;17.70;51.60;;;;;;4992028;28;20125;-81
2021/03/27 12:56:33;;;;;;;0.45;0.20;;;17.70;51.70;;;;;;4994017;28;20022;-81
2021/03/27 12:59:25;;;;;;;2.33;0.00;;;17.60;51.80;;;;;;4992532;28;20018;-81
2021/03/27 13:02:06;;;;;;;3.17;0.10;;;17.40;51.90;;;;;;4992238;28;20041;-83
2021/03/27 13:04:42;;;;;;;4.10;0.22;;;17.30;52.10;;;;;;4992884;28;20026;-81
2021/03/27 13:07:49;;;;;;;0.17;0.05;;;17.20;52.20;;;;;;4992334;28;20038;-81
2021/03/27 13:10:15;;;;;;;0.52;0.00;;;17.10;52.30;;;;;;4971812;28;20519;-81
2021/03/27 13:13:03;;;;;;;0.30;0.10;;;16.90;52.40;;;;;;4967117;28;20038;-82
2021/03/27 13:15:59;;;;;;;0.10;0.10;;;16.80;52.50;;;;;;4956583;28;20600;-85
2021/03/27 13:18:55;;;;;;;1.27;0.10;;;16.80;52.70;;;;;;4959346;28;20492;-81
2021/03/27 13:21:52;;;;;;;0.00;0.00;;;16.80;52.70;;;;;;4889542;29;20403;-81
2021/03/27 13:24:20;;;;;;;1.10;0.13;;;16.90;52.60;;;;;;4894803;29;20048;-81
2021/03/27 13:26:47;;;;;;;0.52;0.28;;;16.90;52.40;;;;;;4859534;29;20037;-81
2021/03/27 13:29:34;;;;;;;0.20;0.00;;;17.00;52.30;;;;;;4874909;29;20044;-80
2021/03/27 13:32:15;;;;;;;0.80;0.10;;;17.10;52.20;;;;;;4861460;29;20086;-81
2021/03/27 13:35:00;;;;;;;0.05;0.00;;;17.30;51.90;;;;;;4894404;29;20165;-81
2021/03/27 13:37:36;;;;;;;0.00;0.00;;;17.60;51.60;;;;;;4877769;29;20529;-81
2021/03/27 13:40:14;;;;;;;0.38;0.10;;;17.80;51.30;;;;;;4880170;29;20144;-81
2021/03/27 13:43:10;;;;;;;0.20;0.00;;;18.00;50.90;;;;;;4903882;29;20025;-81
2021/03/27 13:46:04;;;;;;;0.08;0.00;;;18.10;50.80;;;;;;4931062;28;20040;-81
2021/03/27 13:48:30;;;;;;;0.00;0.00;;;18.00;50.90;;;;;;4930814;29;20204;-81
2021/03/27 13:51:17;;;;;;;0.10;0.03;;;18.00;51.00;;;;;;4925945;29;20032;-81
2021/03/27 13:54:09;;;;;;;0.17;0.05;;;18.10;50.90;;;;;;4926294;29;20552;-81
2021/03/27 13:57:01;;;;;;;0.10;0.00;;;18.10;50.70;;;;;;4912104;29;20038;-80
2021/03/27 13:59:27;;;;;;;0.52;0.10;;;18.20;50.60;;;;;;4977697;28;20043;-81
2021/03/27 14:02:30;;;;;;;0.00;0.00;;;18.20;50.50;;;;;;4972746;28;20479;-81
2021/03/27 14:05:15;;;;;;;0.88;0.10;;;18.20;50.50;;;;;;4990882;28;20368;-81
2021/03/27 14:08:27;;;;;;;1.98;0.03;;;18.20;50.40;;;;;;4993208;28;20030;-81
2021/03/27 14:11:09;;;;;;;1.85;0.15;;;18.30;50.40;;;;;;4954766;28;20035;-81
2021/03/27 14:13:46;;;;;;;1.42;0.10;;;18.20;50.40;;;;;;4962657;28;20053;-81
2021/03/27 14:16:33;;;;;;;0.00;0.00;;;18.20;50.40;;;;;;4960853;28;20514;-81
2021/03/27 14:19:20;;;;;;;3.75;0.17;;;18.20;50.30;;;;;;4990623;28;20550;-81
2021/03/27 14:22:01;;;;;;;0.43;0.10;;;18.20;50.20;;;;;;4954202;28;20038;-81